MSC Vigo — A8ZV8 — position and weather

sailwx.info

Track history (hours):
 
Tides and Currents Weather Stations Pressure Air Temp Water Temp Dewpoint Dewpoint Depression Visibility Wind Speed Wind Dir Waves Ship Positions

MSC Vigo

Last reported at 2017-Feb-07 07:14 UTC. Time now 2017-Feb-23 07:15 UTC.
Position N 39°26' W 000°20'.
Warning: this ship's position is 16 days out of date.

Length 270 m; draft 11.8 m.

Type: Cargo ship. MMSI: 636092276.

Date/timePositionNaut miles runAvg speedWind from/ knotsBaromVisibWave heightAir tempDewpointWater temp
2017-Feb-07 07:14N 39°26' W 000°20'0 0.0
2017-Feb-07 06:32N 39°26' W 000°20'0 0.0
2017-Feb-07 05:32N 39°26' W 000°20'0 0.0
2017-Feb-07 04:32N 39°26' W 000°20'0 0.0
2017-Feb-07 03:32N 39°26' W 000°20'0 0.0
2017-Feb-07 02:32N 39°26' W 000°20'0 0.0
2017-Feb-07 01:32N 39°26' W 000°20'0 0.0
2017-Feb-07 00:32N 39°26' W 000°20'1 0.9
2017-Feb-06 23:33N 39°26' W 000°18'4 4.0
2017-Feb-06 22:33N 39°25' W 000°14'5719.1
2017-Feb-06 19:33N 39°46' E 000°56'2121.5
2017-Feb-06 18:33N 40°04' E 001°11'2221.5
2017-Feb-06 17:33N 40°22' E 001°26'2221.6
2017-Feb-06 16:33N 40°41' E 001°41'2121.0
2017-Feb-06 15:34N 40°58' E 001°56'2020.0
2017-Feb-06 14:33N 41°15' E 002°11'4 0.1
2017-Feb-05 06:20N 41°19' E 002°10'5 6.7
2017-Feb-05 05:33N 41°16' E 002°16'1 1.2
2017-Feb-05 04:24N 41°15' E 002°15'1 1.3
2017-Feb-05 03:33N 41°15' E 002°13'1414.1
2017-Feb-05 02:34N 41°21' E 002°30'14516.0
2017-Feb-04 17:29N 43°02' E 004°50'8 8.4
2017-Feb-04 16:29N 43°09' E 004°57'8 8.0
2017-Feb-04 15:29N 43°17' E 004°60'11 0.3
2017-Feb-02 21:33N 43°25' E 004°50'5 4.9
2017-Feb-02 20:31N 43°23' E 004°56'9 9.5
2017-Feb-02 19:34N 43°15' E 005°01'11 5.3
2017-Feb-02 17:33N 43°05' E 004°56'10 4.8
2017-Feb-02 15:34N 43°07' E 004°43'4 2.0
2017-Feb-02 13:33N 43°05' E 004°47'5 2.3
2017-Feb-02 11:34N 43°06' E 004°53'103 6.9
2017-Feb-01 20:33N 42°57' E 007°14'9 8.0
2017-Feb-01 19:28N 43°01' E 007°25'7 8.0
2017-Feb-01 18:33N 43°02' E 007°35'1414.3
2017-Feb-01 17:33N 43°06' E 007°53'1414.1
2017-Feb-01 16:33N 43°10' E 008°12'1414.1
2017-Feb-01 15:33N 43°14' E 008°30'2013.5
2017-Feb-01 14:05N 43°20' E 008°57'1911.0
2017-Feb-01 12:21N 43°26' E 009°21'910.9
2017-Feb-01 11:33N 43°27' E 009°33'1010.3
2017-Feb-01 10:33N 43°30' E 009°47'8 8.4
2017-Feb-01 09:33N 43°30' E 009°58'1110.7
2017-Feb-01 08:33N 43°31' E 010°13'5 4.8
2017-Feb-01 07:33N 43°34' E 010°18'0 0.3
2017-Feb-01 06:30N 43°35' E 010°18'0 0.0
2017-Feb-01 05:33N 43°35' E 010°18'0 0.0
2017-Feb-01 04:33N 43°35' E 010°18'0 0.0
2017-Feb-01 03:33N 43°35' E 010°18'0 0.0
2017-Feb-01 02:33N 43°35' E 010°18'0 0.0
2017-Feb-01 01:33N 43°35' E 010°18'0 0.0
2017-Feb-01 00:33N 43°35' E 010°18'0 0.0
2017-Jan-31 23:33N 43°35' E 010°18'0 0.0
2017-Jan-31 22:33N 43°35' E 010°18'0 0.0
2017-Jan-31 21:33N 43°35' E 010°18'0 0.0
2017-Jan-31 20:33N 43°35' E 010°18'0 0.0
2017-Jan-31 19:33N 43°35' E 010°18'0 0.0
2017-Jan-31 18:33N 43°35' E 010°18'0 0.0
2017-Jan-31 17:33N 43°35' E 010°18'0 0.0
2017-Jan-31 16:30N 43°35' E 010°18'0 0.0
2017-Jan-31 15:33N 43°35' E 010°18'0 0.0
2017-Jan-31 14:33N 43°35' E 010°18'0 0.0
2017-Jan-31 13:24N 43°35' E 010°18'0 0.0
2017-Jan-31 12:30N 43°35' E 010°18'0 0.0
2017-Jan-31 11:33N 43°35' E 010°18'0 0.0
2017-Jan-31 10:33N 43°35' E 010°18'0 0.0
2017-Jan-31 09:33N 43°35' E 010°18'0 0.0
2017-Jan-31 08:33N 43°35' E 010°18'0 0.0
2017-Jan-31 07:33N 43°35' E 010°18'1 1.1
2017-Jan-31 06:33N 43°34' E 010°18'5 4.9
2017-Jan-31 05:33N 43°30' E 010°13'7 6.5
2017-Jan-31 04:33N 43°27' E 010°06'1 1.0
2017-Jan-31 03:33N 43°26' E 010°07'1 1.1
2017-Jan-31 02:33N 43°26' E 010°08'0 0.3
2017-Jan-31 01:33N 43°26' E 010°08'1 0.8
2017-Jan-31 00:33N 43°25' E 010°07'1 0.8
2017-Jan-30 23:33N 43°26' E 010°06'1 0.9
2017-Jan-30 22:33N 43°26' E 010°08'1 0.6
2017-Jan-30 21:33N 43°26' E 010°07'1 1.3
2017-Jan-30 20:33N 43°27' E 010°07'0 0.4
2017-Jan-30 19:33N 43°26' E 010°07'1 0.5
2017-Jan-30 18:33N 43°26' E 010°07'0 0.3
2017-Jan-30 17:33N 43°26' E 010°07'4 4.3
2017-Jan-30 16:33N 43°29' E 010°02'1111.2
2017-Jan-30 15:33N 43°36' E 009°50'1615.7
2017-Jan-30 14:33N 43°47' E 009°35'1817.7
2017-Jan-30 13:33N 43°59' E 009°17'2020.1
2017-Jan-30 12:33N 44°12' E 008°56'1514.9
2017-Jan-30 11:33N 44°25' E 008°44'2 2.1
2017-Jan-30 10:33N 44°25' E 008°47'0 0.0
2017-Jan-30 09:33N 44°25' E 008°47'0 0.0
2017-Jan-30 08:33N 44°25' E 008°47'0 0.0
2017-Jan-30 07:30N 44°25' E 008°47'0 0.0
2017-Jan-30 06:33N 44°25' E 008°47'0 0.0
2017-Jan-30 05:33N 44°25' E 008°47'0 0.0
2017-Jan-30 04:33N 44°25' E 008°47'0 0.0
2017-Jan-30 03:33N 44°25' E 008°47'0 0.0
2017-Jan-30 02:33N 44°25' E 008°47'0 0.0
2017-Jan-30 01:33N 44°25' E 008°47'0 0.0
2017-Jan-30 00:33N 44°25' E 008°47'0 0.0
2017-Jan-29 23:33N 44°25' E 008°47'0 0.0
2017-Jan-29 22:33N 44°25' E 008°47'0 0.0
2017-Jan-29 21:33N 44°25' E 008°47'0 0.0
2017-Jan-29 20:33N 44°25' E 008°47'0 0.0
2017-Jan-29 19:33N 44°25' E 008°47'0 0.0
2017-Jan-29 18:33N 44°25' E 008°47'0 0.0
2017-Jan-29 17:33N 44°25' E 008°47'0 0.0
2017-Jan-29 16:33N 44°25' E 008°47'0 0.0
2017-Jan-29 15:33N 44°25' E 008°47'0 0.0
2017-Jan-29 14:30N 44°25' E 008°47'0 0.0
2017-Jan-29 13:33N 44°25' E 008°47'0 0.0
2017-Jan-29 12:33N 44°25' E 008°47'0 0.0
2017-Jan-29 11:33N 44°25' E 008°47'0 0.0
2017-Jan-29 10:33N 44°25' E 008°47'0 0.0
2017-Jan-29 09:32N 44°25' E 008°47'0 0.0
2017-Jan-29 08:33N 44°25' E 008°47'0 0.0
2017-Jan-29 07:33N 44°25' E 008°47'0 0.0
2017-Jan-29 06:33N 44°25' E 008°47'0 0.0
2017-Jan-29 05:33N 44°25' E 008°47'7 6.7
2017-Jan-29 04:34N 44°19' E 008°43'4 4.3
2017-Jan-29 03:33N 44°15' E 008°45'1 1.0
2017-Jan-29 02:33N 44°16' E 008°45'2 2.1
2017-Jan-29 01:33N 44°18' E 008°44'1 1.3
2017-Jan-29 00:33N 44°17' E 008°45'2 1.7
2017-Jan-28 23:34N 44°16' E 008°45'1 0.7
2017-Jan-28 22:34N 44°16' E 008°45'1 0.9
2017-Jan-28 21:34N 44°17' E 008°44'1 0.6
2017-Jan-28 20:33N 44°16' E 008°44'1 0.7
2017-Jan-28 19:34N 44°16' E 008°45'1 0.7
2017-Jan-28 18:34N 44°15' E 008°45'1 0.9
2017-Jan-28 17:34N 44°16' E 008°46'1 1.5
2017-Jan-28 16:33N 44°16' E 008°44'1 0.9
2017-Jan-28 15:34N 44°17' E 008°44'1 1.5
2017-Jan-28 14:34N 44°16' E 008°46'1 1.1
2017-Jan-28 13:34N 44°17' E 008°45'0 0.1
2017-Jan-28 12:34N 44°17' E 008°45'2 2.1
2017-Jan-28 11:33N 44°19' E 008°46'1 1.2
2017-Jan-28 10:33N 44°18' E 008°45'1414.1
2017-Jan-28 09:33N 44°06' E 008°54'1414.1
2017-Jan-28 08:34N 43°53' E 009°02'1414.0
2017-Jan-28 07:33N 43°40' E 009°12'  
Track history (hours):
 
Tides and Currents Weather Stations Pressure Air Temp Water Temp Dewpoint Dewpoint Depression Visibility Wind Speed Wind Dir Waves Ship Positions

MSC Vigo

Last reported at 2017-Feb-07 07:14 UTC. Time now 2017-Feb-23 07:15 UTC.
Position N 39°26' W 000°20'.
Warning: this ship's position is 16 days out of date.

Length 270 m; draft 11.8 m.

Type: Cargo ship. MMSI: 636092276.

Date/timePositionNaut miles runAvg speedWind from/ knotsBaromVisibWave heightAir tempDewpointWater temp
2017-Feb-07 07:14N 39°26' W 000°20'0 0.0
2017-Feb-07 06:32N 39°26' W 000°20'0 0.0
2017-Feb-07 05:32N 39°26' W 000°20'0 0.0
2017-Feb-07 04:32N 39°26' W 000°20'0 0.0
2017-Feb-07 03:32N 39°26' W 000°20'0 0.0
2017-Feb-07 02:32N 39°26' W 000°20'0 0.0
2017-Feb-07 01:32N 39°26' W 000°20'0 0.0
2017-Feb-07 00:32N 39°26' W 000°20'1 0.9
2017-Feb-06 23:33N 39°26' W 000°18'4 4.0
2017-Feb-06 22:33N 39°25' W 000°14'5719.1
2017-Feb-06 19:33N 39°46' E 000°56'2121.5
2017-Feb-06 18:33N 40°04' E 001°11'2221.5
2017-Feb-06 17:33N 40°22' E 001°26'2221.6
2017-Feb-06 16:33N 40°41' E 001°41'2121.0
2017-Feb-06 15:34N 40°58' E 001°56'2020.0
2017-Feb-06 14:33N 41°15' E 002°11'4 0.1
2017-Feb-05 06:20N 41°19' E 002°10'5 6.7
2017-Feb-05 05:33N 41°16' E 002°16'1 1.2
2017-Feb-05 04:24N 41°15' E 002°15'1 1.3
2017-Feb-05 03:33N 41°15' E 002°13'1414.1
2017-Feb-05 02:34N 41°21' E 002°30'14516.0
2017-Feb-04 17:29N 43°02' E 004°50'8 8.4
2017-Feb-04 16:29N 43°09' E 004°57'8 8.0
2017-Feb-04 15:29N 43°17' E 004°60'11 0.3
2017-Feb-02 21:33N 43°25' E 004°50'5 4.9
2017-Feb-02 20:31N 43°23' E 004°56'9 9.5
2017-Feb-02 19:34N 43°15' E 005°01'11 5.3
2017-Feb-02 17:33N 43°05' E 004°56'10 4.8
2017-Feb-02 15:34N 43°07' E 004°43'4 2.0
2017-Feb-02 13:33N 43°05' E 004°47'5 2.3
2017-Feb-02 11:34N 43°06' E 004°53'103 6.9
2017-Feb-01 20:33N 42°57' E 007°14'9 8.0
2017-Feb-01 19:28N 43°01' E 007°25'7 8.0
2017-Feb-01 18:33N 43°02' E 007°35'1414.3
2017-Feb-01 17:33N 43°06' E 007°53'1414.1
2017-Feb-01 16:33N 43°10' E 008°12'1414.1
2017-Feb-01 15:33N 43°14' E 008°30'2013.5
2017-Feb-01 14:05N 43°20' E 008°57'1911.0
2017-Feb-01 12:21N 43°26' E 009°21'910.9
2017-Feb-01 11:33N 43°27' E 009°33'1010.3
2017-Feb-01 10:33N 43°30' E 009°47'8 8.4
2017-Feb-01 09:33N 43°30' E 009°58'1110.7
2017-Feb-01 08:33N 43°31' E 010°13'5 4.8
2017-Feb-01 07:33N 43°34' E 010°18'0 0.3
2017-Feb-01 06:30N 43°35' E 010°18'0 0.0
2017-Feb-01 05:33N 43°35' E 010°18'0 0.0
2017-Feb-01 04:33N 43°35' E 010°18'0 0.0
2017-Feb-01 03:33N 43°35' E 010°18'0 0.0
2017-Feb-01 02:33N 43°35' E 010°18'0 0.0
2017-Feb-01 01:33N 43°35' E 010°18'0 0.0
2017-Feb-01 00:33N 43°35' E 010°18'0 0.0
2017-Jan-31 23:33N 43°35' E 010°18'0 0.0
2017-Jan-31 22:33N 43°35' E 010°18'0 0.0
2017-Jan-31 21:33N 43°35' E 010°18'0 0.0
2017-Jan-31 20:33N 43°35' E 010°18'0 0.0
2017-Jan-31 19:33N 43°35' E 010°18'0 0.0
2017-Jan-31 18:33N 43°35' E 010°18'0 0.0
2017-Jan-31 17:33N 43°35' E 010°18'0 0.0
2017-Jan-31 16:30N 43°35' E 010°18'0 0.0
2017-Jan-31 15:33N 43°35' E 010°18'0 0.0
2017-Jan-31 14:33N 43°35' E 010°18'0 0.0
2017-Jan-31 13:24N 43°35' E 010°18'0 0.0
2017-Jan-31 12:30N 43°35' E 010°18'0 0.0
2017-Jan-31 11:33N 43°35' E 010°18'0 0.0
2017-Jan-31 10:33N 43°35' E 010°18'0 0.0
2017-Jan-31 09:33N 43°35' E 010°18'0 0.0
2017-Jan-31 08:33N 43°35' E 010°18'0 0.0
2017-Jan-31 07:33N 43°35' E 010°18'1 1.1
2017-Jan-31 06:33N 43°34' E 010°18'5 4.9
2017-Jan-31 05:33N 43°30' E 010°13'7 6.5
2017-Jan-31 04:33N 43°27' E 010°06'1 1.0
2017-Jan-31 03:33N 43°26' E 010°07'1 1.1
2017-Jan-31 02:33N 43°26' E 010°08'0 0.3
2017-Jan-31 01:33N 43°26' E 010°08'1 0.8
2017-Jan-31 00:33N 43°25' E 010°07'1 0.8
2017-Jan-30 23:33N 43°26' E 010°06'1 0.9
2017-Jan-30 22:33N 43°26' E 010°08'1 0.6
2017-Jan-30 21:33N 43°26' E 010°07'1 1.3
2017-Jan-30 20:33N 43°27' E 010°07'0 0.4
2017-Jan-30 19:33N 43°26' E 010°07'1 0.5
2017-Jan-30 18:33N 43°26' E 010°07'0 0.3
2017-Jan-30 17:33N 43°26' E 010°07'4 4.3
2017-Jan-30 16:33N 43°29' E 010°02'1111.2
2017-Jan-30 15:33N 43°36' E 009°50'1615.7
2017-Jan-30 14:33N 43°47' E 009°35'1817.7
2017-Jan-30 13:33N 43°59' E 009°17'2020.1
2017-Jan-30 12:33N 44°12' E 008°56'1514.9
2017-Jan-30 11:33N 44°25' E 008°44'2 2.1
2017-Jan-30 10:33N 44°25' E 008°47'0 0.0
2017-Jan-30 09:33N 44°25' E 008°47'0 0.0
2017-Jan-30 08:33N 44°25' E 008°47'0 0.0
2017-Jan-30 07:30N 44°25' E 008°47'0 0.0
2017-Jan-30 06:33N 44°25' E 008°47'0 0.0
2017-Jan-30 05:33N 44°25' E 008°47'0 0.0
2017-Jan-30 04:33N 44°25' E 008°47'0 0.0
2017-Jan-30 03:33N 44°25' E 008°47'0 0.0
2017-Jan-30 02:33N 44°25' E 008°47'0 0.0
2017-Jan-30 01:33N 44°25' E 008°47'0 0.0
2017-Jan-30 00:33N 44°25' E 008°47'0 0.0
2017-Jan-29 23:33N 44°25' E 008°47'0 0.0
2017-Jan-29 22:33N 44°25' E 008°47'0 0.0
2017-Jan-29 21:33N 44°25' E 008°47'0 0.0
2017-Jan-29 20:33N 44°25' E 008°47'0 0.0
2017-Jan-29 19:33N 44°25' E 008°47'0 0.0
2017-Jan-29 18:33N 44°25' E 008°47'0 0.0
2017-Jan-29 17:33N 44°25' E 008°47'0 0.0
2017-Jan-29 16:33N 44°25' E 008°47'0 0.0
2017-Jan-29 15:33N 44°25' E 008°47'0 0.0
2017-Jan-29 14:30N 44°25' E 008°47'0 0.0
2017-Jan-29 13:33N 44°25' E 008°47'0 0.0
2017-Jan-29 12:33N 44°25' E 008°47'0 0.0
2017-Jan-29 11:33N 44°25' E 008°47'0 0.0
2017-Jan-29 10:33N 44°25' E 008°47'0 0.0
2017-Jan-29 09:32N 44°25' E 008°47'0 0.0
2017-Jan-29 08:33N 44°25' E 008°47'0 0.0
2017-Jan-29 07:33N 44°25' E 008°47'0 0.0
2017-Jan-29 06:33N 44°25' E 008°47'0 0.0
2017-Jan-29 05:33N 44°25' E 008°47'7 6.7
2017-Jan-29 04:34N 44°19' E 008°43'4 4.3
2017-Jan-29 03:33N 44°15' E 008°45'1 1.0
2017-Jan-29 02:33N 44°16' E 008°45'2 2.1
2017-Jan-29 01:33N 44°18' E 008°44'1 1.3
2017-Jan-29 00:33N 44°17' E 008°45'2 1.7
2017-Jan-28 23:34N 44°16' E 008°45'1 0.7
2017-Jan-28 22:34N 44°16' E 008°45'1 0.9
2017-Jan-28 21:34N 44°17' E 008°44'1 0.6
2017-Jan-28 20:33N 44°16' E 008°44'1 0.7
2017-Jan-28 19:34N 44°16' E 008°45'1 0.7
2017-Jan-28 18:34N 44°15' E 008°45'1 0.9
2017-Jan-28 17:34N 44°16' E 008°46'1 1.5
2017-Jan-28 16:33N 44°16' E 008°44'1 0.9
2017-Jan-28 15:34N 44°17' E 008°44'1 1.5
2017-Jan-28 14:34N 44°16' E 008°46'1 1.1
2017-Jan-28 13:34N 44°17' E 008°45'0 0.1
2017-Jan-28 12:34N 44°17' E 008°45'2 2.1
2017-Jan-28 11:33N 44°19' E 008°46'1 1.2
2017-Jan-28 10:33N 44°18' E 008°45'1414.1
2017-Jan-28 09:33N 44°06' E 008°54'1414.1
2017-Jan-28 08:34N 43°53' E 009°02'1414.0
2017-Jan-28 07:33N 43°40' E 009°12'  

Dump ship's entire track history